Airfield :
LOGIN :

Register | Disclaimer

   EN    FR    IT 

 










Legend :    VFR   Marginal VFR   IFR   Intensive IFR   Very Intensive IFR
Visi :
Ceiling :
>= 8 km
>= 3000ft
5 to 8 km
1000 to 3000 ft
1500m to 5 km
500 to 1000 ft
800 to 1500m
200 to 500 ft
< 800m
< 200 ft
Symbols :   Thunderstorms  Fog  Heavy snow  Heavy precipitations  Wind > 20 kt
SIGMETs :     Misc.  Thunderstorms  Icing  Turbulence  Mountain Waves  Volcanic Ashes






- Airport Elevation : 55 ft


EGNO - Warton Preston

CURRENT METAR :
  • 071020Z 27010KT 250V310 9999 SCT022TCU 09/04 Q1015

EXPIRED METARs :
  • 070950Z 28010KT 9999 SCT022TCU 09/01 Q1014
  • 070920Z 28009KT 250V320 9999 BKN022 09/04 Q1014
  • 070850Z 28010KT 9999 BKN019 09/05 Q1014
  • 070820Z 29009KT 260V330 9999 BKN019 09/04 Q1014
  • 070750Z 30008KT 9999 BKN017 09/05 Q1014

TAF TAF EGNO
Valid from the 07 at 09:00 until the 07 at 18:00 UTC


070834Z 0709/0718 29009KT 9999 SCT015
TEMPO 0709/0714 7000 SHRA
ATIS : +44 1772 856 060



MET'MAP, your aeronautical weather chart ! - Copyright ORBIFLY December 2007 - Disclaimer

ORBIFLY MET'MAP TEAM :

Programming & Development : Alexandra Zaïnal
Concept & original design : Baudouin d'Aumeries
Assistance for programming : Marc-Olivier Méhu
Technical & hardware support : Manuel Goepfert

Contact : metmap@orbifly.com




SOURCES & CREDITS :

   NOAA